Corsicana, Texas
Current Conditions -  °F | °C
As of 3:53 AM on Friday 21 Nov 2014 (Local Time) from KCRS Reporting Station
Haze Haze  
Wind Chill: 60°   Ceiling: 500
Heat Index: 60°   Visibility: 6mi
Dew Point: 57°   Wind: 8mph
Humidity: 90%   Direction: 140°SE
Pressure: 30.09"   Gusts: NA
Location:  32.09°N, 96.46°W
Report Text: KCRS 210953Z AUTO 14007KT 6SM BR OVC005 16/14 A3009 RMK AO2 RAB21E50 SLP187 P0000 T01560139
Loading
Personal Weather Stations






























Interactive Weather Map New forecast layout! Learn more

10-Day Weather Forecast

Advertisements
Track Severe Weather on mobile